Elisalex Schulte — 9V9154 — position and weather

sailwx.info

Track history (hours):
 
Tides and Currents Weather Stations Pressure Air Temp Water Temp Dewpoint Dewpoint Depression Visibility Wind Speed Wind Dir Waves Ship Positions

Elisalex Schulte

Last reported at 2016-Jun-27 09:33 UTC. Time now 2016-Jun-27 09:36 UTC.
Position N 51°16' E 004°21'.

Length 144 m; draft 8.9 m.

Type: Tanker. MMSI: 563052000.

Date/timePositionNaut miles runAvg speedWind from/ knotsBaromVisibWave heightAir tempDewpointWater temp
2016-Jun-27 09:33N 51°16' E 004°21'0 0.0
2016-Jun-27 08:33N 51°16' E 004°21'0 0.0
2016-Jun-27 07:34N 51°16' E 004°21'0 0.0
2016-Jun-27 06:31N 51°16' E 004°21'1 0.8
2016-Jun-27 05:33N 51°17' E 004°20'0 0.0
2016-Jun-27 04:34N 51°17' E 004°20'0 0.0
2016-Jun-27 03:34N 51°17' E 004°20'5 5.3
2016-Jun-27 02:33N 51°21' E 004°15'8 8.3
2016-Jun-27 01:33N 51°23' E 004°02'5 5.2
2016-Jun-27 00:33N 51°22' E 003°54'8 7.7
2016-Jun-26 23:33N 51°24' E 003°43'6 6.1
2016-Jun-26 22:33N 51°25' E 003°33'7 6.8
2016-Jun-26 21:33N 51°24' E 003°22'10 9.2
2016-Jun-26 20:30N 51°24' E 003°07'9 9.7
2016-Jun-26 19:33N 51°22' E 002°52'8 7.8
2016-Jun-26 18:32N 51°22' E 002°40'8 7.7
2016-Jun-26 17:33N 51°21' E 002°28'1414.2
2016-Jun-26 16:33N 51°14' E 002°08'1515.4
2016-Jun-26 15:33N 51°06' E 001°47'1615.5
2016-Jun-26 14:33N 50°55' E 001°30'5313.0
2016-Jun-26 10:30N 50°22' E 000°25'1313.4
2016-Jun-26 09:31N 50°19' E 000°04'1212.6
2016-Jun-26 08:33N 50°17' W 000°14'9812.1
2016-Jun-26 00:29N 49°52' W 002°41'1514.3
2016-Jun-25 23:28N 49°46' W 003°01'1414.5
2016-Jun-25 22:31N 49°39' W 003°20'  
2016-Jun-23 12:04N 39°10' W 009°57'612.7
2016-Jun-23 11:33N 39°04' W 009°57'1313.2
2016-Jun-23 10:33N 38°50' W 009°58'1312.5
2016-Jun-23 09:30N 38°38' W 009°55'1213.0
2016-Jun-23 08:33N 38°25' W 009°52'1412.8
2016-Jun-23 07:27N 38°12' W 009°48'2912.4
2016-Jun-23 05:07N 37°44' W 009°40'712.5
2016-Jun-23 04:32N 37°37' W 009°38'1212.4
2016-Jun-23 03:33N 37°25' W 009°34'1212.4
2016-Jun-23 02:33N 37°12' W 009°31'1512.7
2016-Jun-23 01:24N 36°58' W 009°27'12012.1
2016-Jun-22 15:26N 36°11' W 007°10'8013.2
2016-Jun-22 09:22N 35°59' W 005°32'1011.9
2016-Jun-22 08:33N 36°01' W 005°20'37012.7
2016-Jun-21 03:28N 36°60' E 002°14'50311.4
2016-Jun-19 07:30N 36°57' E 012°43'1212.4
2016-Jun-19 06:33N 36°54' E 012°57'1312.6
2016-Jun-19 05:33N 36°50' E 013°12'1212.5
2016-Jun-19 04:33N 36°47' E 013°27'1312.4
2016-Jun-19 03:31N 36°43' E 013°43'1313.1
2016-Jun-19 02:33N 36°40' E 013°58'1313.2
2016-Jun-19 01:34N 36°38' E 014°14'1313.2
2016-Jun-19 00:33N 36°39' E 014°31'1312.9
2016-Jun-18 23:34N 36°34' E 014°46'  
Track history (hours):
 
Tides and Currents Weather Stations Pressure Air Temp Water Temp Dewpoint Dewpoint Depression Visibility Wind Speed Wind Dir Waves Ship Positions

Elisalex Schulte

Last reported at 2016-Jun-27 09:33 UTC. Time now 2016-Jun-27 09:36 UTC.
Position N 51°16' E 004°21'.

Length 144 m; draft 8.9 m.

Type: Tanker. MMSI: 563052000.

Date/timePositionNaut miles runAvg speedWind from/ knotsBaromVisibWave heightAir tempDewpointWater temp
2016-Jun-27 09:33N 51°16' E 004°21'0 0.0
2016-Jun-27 08:33N 51°16' E 004°21'0 0.0
2016-Jun-27 07:34N 51°16' E 004°21'0 0.0
2016-Jun-27 06:31N 51°16' E 004°21'1 0.8
2016-Jun-27 05:33N 51°17' E 004°20'0 0.0
2016-Jun-27 04:34N 51°17' E 004°20'0 0.0
2016-Jun-27 03:34N 51°17' E 004°20'5 5.3
2016-Jun-27 02:33N 51°21' E 004°15'8 8.3
2016-Jun-27 01:33N 51°23' E 004°02'5 5.2
2016-Jun-27 00:33N 51°22' E 003°54'8 7.7
2016-Jun-26 23:33N 51°24' E 003°43'6 6.1
2016-Jun-26 22:33N 51°25' E 003°33'7 6.8
2016-Jun-26 21:33N 51°24' E 003°22'10 9.2
2016-Jun-26 20:30N 51°24' E 003°07'9 9.7
2016-Jun-26 19:33N 51°22' E 002°52'8 7.8
2016-Jun-26 18:32N 51°22' E 002°40'8 7.7
2016-Jun-26 17:33N 51°21' E 002°28'1414.2
2016-Jun-26 16:33N 51°14' E 002°08'1515.4
2016-Jun-26 15:33N 51°06' E 001°47'1615.5
2016-Jun-26 14:33N 50°55' E 001°30'5313.0
2016-Jun-26 10:30N 50°22' E 000°25'1313.4
2016-Jun-26 09:31N 50°19' E 000°04'1212.6
2016-Jun-26 08:33N 50°17' W 000°14'9812.1
2016-Jun-26 00:29N 49°52' W 002°41'1514.3
2016-Jun-25 23:28N 49°46' W 003°01'1414.5
2016-Jun-25 22:31N 49°39' W 003°20'  
2016-Jun-23 12:04N 39°10' W 009°57'612.7
2016-Jun-23 11:33N 39°04' W 009°57'1313.2
2016-Jun-23 10:33N 38°50' W 009°58'1312.5
2016-Jun-23 09:30N 38°38' W 009°55'1213.0
2016-Jun-23 08:33N 38°25' W 009°52'1412.8
2016-Jun-23 07:27N 38°12' W 009°48'2912.4
2016-Jun-23 05:07N 37°44' W 009°40'712.5
2016-Jun-23 04:32N 37°37' W 009°38'1212.4
2016-Jun-23 03:33N 37°25' W 009°34'1212.4
2016-Jun-23 02:33N 37°12' W 009°31'1512.7
2016-Jun-23 01:24N 36°58' W 009°27'12012.1
2016-Jun-22 15:26N 36°11' W 007°10'8013.2
2016-Jun-22 09:22N 35°59' W 005°32'1011.9
2016-Jun-22 08:33N 36°01' W 005°20'37012.7
2016-Jun-21 03:28N 36°60' E 002°14'50311.4
2016-Jun-19 07:30N 36°57' E 012°43'1212.4
2016-Jun-19 06:33N 36°54' E 012°57'1312.6
2016-Jun-19 05:33N 36°50' E 013°12'1212.5
2016-Jun-19 04:33N 36°47' E 013°27'1312.4
2016-Jun-19 03:31N 36°43' E 013°43'1313.1
2016-Jun-19 02:33N 36°40' E 013°58'1313.2
2016-Jun-19 01:34N 36°38' E 014°14'1313.2
2016-Jun-19 00:33N 36°39' E 014°31'1312.9
2016-Jun-18 23:34N 36°34' E 014°46'  

Dump ship's entire track history